sensor_id;sensor_type;location;lat;lon;timestamp;temperature;humidity
68011;DHT22;54794;48.348;7.878;2022-08-21T00:01:40;19.10;62.80
68011;DHT22;54794;48.348;7.878;2022-08-21T00:04:08;19.10;62.90
68011;DHT22;54794;48.348;7.878;2022-08-21T00:06:40;19.00;62.80
68011;DHT22;54794;48.348;7.878;2022-08-21T00:09:08;19.10;62.90
68011;DHT22;54794;48.348;7.878;2022-08-21T00:11:36;19.10;63.10
68011;DHT22;54794;48.348;7.878;2022-08-21T00:14:06;19.00;63.20
68011;DHT22;54794;48.348;7.878;2022-08-21T00:16:34;19.00;63.10
68011;DHT22;54794;48.348;7.878;2022-08-21T00:19:02;19.00;63.30
68011;DHT22;54794;48.348;7.878;2022-08-21T00:21:29;19.00;63.40
68011;DHT22;54794;48.348;7.878;2022-08-21T00:23:56;19.00;63.30
68011;DHT22;54794;48.348;7.878;2022-08-21T00:26:23;19.00;63.30
68011;DHT22;54794;48.348;7.878;2022-08-21T00:28:50;18.90;63.30
68011;DHT22;54794;48.348;7.878;2022-08-21T00:31:17;18.90;63.30
68011;DHT22;54794;48.348;7.878;2022-08-21T00:33:45;18.90;63.20
68011;DHT22;54794;48.348;7.878;2022-08-21T00:36:12;18.90;63.30
68011;DHT22;54794;48.348;7.878;2022-08-21T00:38:40;18.80;63.40
68011;DHT22;54794;48.348;7.878;2022-08-21T00:41:09;18.80;63.60
68011;DHT22;54794;48.348;7.878;2022-08-21T00:43:57;18.80;63.70
68011;DHT22;54794;48.348;7.878;2022-08-21T00:46:24;18.80;63.60
68011;DHT22;54794;48.348;7.878;2022-08-21T00:48:54;18.80;63.60
68011;DHT22;54794;48.348;7.878;2022-08-21T00:51:41;18.80;63.70
68011;DHT22;54794;48.348;7.878;2022-08-21T00:54:13;18.70;64.60
68011;DHT22;54794;48.348;7.878;2022-08-21T00:56:46;18.70;63.80
68011;DHT22;54794;48.348;7.878;2022-08-21T00:59:18;18.70;63.90
68011;DHT22;54794;48.348;7.878;2022-08-21T01:01:46;18.60;64.00
68011;DHT22;54794;48.348;7.878;2022-08-21T01:04:15;18.60;64.00
68011;DHT22;54794;48.348;7.878;2022-08-21T01:06:43;18.60;64.10
68011;DHT22;54794;48.348;7.878;2022-08-21T01:09:11;18.60;64.20
68011;DHT22;54794;48.348;7.878;2022-08-21T01:11:40;18.50;64.10
68011;DHT22;54794;48.348;7.878;2022-08-21T01:14:10;18.50;64.30
68011;DHT22;54794;48.348;7.878;2022-08-21T01:16:40;18.50;64.40
68011;DHT22;54794;48.348;7.878;2022-08-21T01:19:11;18.50;64.40
68011;DHT22;54794;48.348;7.878;2022-08-21T01:21:40;18.50;64.40
68011;DHT22;54794;48.348;7.878;2022-08-21T01:24:10;18.50;64.40
68011;DHT22;54794;48.348;7.878;2022-08-21T01:26:38;18.40;64.40
68011;DHT22;54794;48.348;7.878;2022-08-21T01:31:53;18.40;64.90
68011;DHT22;54794;48.348;7.878;2022-08-21T01:34:20;18.40;64.60
68011;DHT22;54794;48.348;7.878;2022-08-21T01:36:48;18.30;64.60
68011;DHT22;54794;48.348;7.878;2022-08-21T01:39:15;18.30;64.70
68011;DHT22;54794;48.348;7.878;2022-08-21T01:41:43;18.30;64.70
68011;DHT22;54794;48.348;7.878;2022-08-21T01:44:10;18.30;64.80
68011;DHT22;54794;48.348;7.878;2022-08-21T01:46:38;18.20;64.60
68011;DHT22;54794;48.348;7.878;2022-08-21T01:49:05;18.20;64.80
68011;DHT22;54794;48.348;7.878;2022-08-21T01:51:32;18.20;64.90
68011;DHT22;54794;48.348;7.878;2022-08-21T01:54:00;18.20;65.00
68011;DHT22;54794;48.348;7.878;2022-08-21T01:56:27;18.20;65.10
68011;DHT22;54794;48.348;7.878;2022-08-21T01:58:54;18.20;65.10
68011;DHT22;54794;48.348;7.878;2022-08-21T02:01:21;18.10;64.90
68011;DHT22;54794;48.348;7.878;2022-08-21T02:03:49;18.10;65.00
68011;DHT22;54794;48.348;7.878;2022-08-21T02:06:16;18.10;65.10
68011;DHT22;54794;48.348;7.878;2022-08-21T02:08:45;18.10;65.10
68011;DHT22;54794;48.348;7.878;2022-08-21T02:11:13;18.10;65.30
68011;DHT22;54794;48.348;7.878;2022-08-21T02:13:40;18.00;65.30
68011;DHT22;54794;48.348;7.878;2022-08-21T02:16:07;18.00;65.40
68011;DHT22;54794;48.348;7.878;2022-08-21T02:18:36;18.00;65.30
68011;DHT22;54794;48.348;7.878;2022-08-21T02:21:04;18.00;65.40
68011;DHT22;54794;48.348;7.878;2022-08-21T02:23:32;17.90;65.30
68011;DHT22;54794;48.348;7.878;2022-08-21T02:26:01;17.90;65.40
68011;DHT22;54794;48.348;7.878;2022-08-21T02:28:31;17.90;65.50
68011;DHT22;54794;48.348;7.878;2022-08-21T02:30:58;17.90;65.50
68011;DHT22;54794;48.348;7.878;2022-08-21T02:33:26;17.90;65.60
68011;DHT22;54794;48.348;7.878;2022-08-21T02:35:55;17.90;65.70
68011;DHT22;54794;48.348;7.878;2022-08-21T02:38:27;17.80;65.70
68011;DHT22;54794;48.348;7.878;2022-08-21T02:40:57;17.80;65.80
68011;DHT22;54794;48.348;7.878;2022-08-21T02:43:26;17.80;65.90
68011;DHT22;54794;48.348;7.878;2022-08-21T02:45:55;17.80;66.00
68011;DHT22;54794;48.348;7.878;2022-08-21T02:48:28;17.70;65.90
68011;DHT22;54794;48.348;7.878;2022-08-21T02:51:02;17.70;66.10
68011;DHT22;54794;48.348;7.878;2022-08-21T02:53:31;17.70;66.20
68011;DHT22;54794;48.348;7.878;2022-08-21T02:56:00;17.70;66.10
68011;DHT22;54794;48.348;7.878;2022-08-21T02:58:35;17.70;66.20
68011;DHT22;54794;48.348;7.878;2022-08-21T03:01:09;17.70;66.30
68011;DHT22;54794;48.348;7.878;2022-08-21T03:03:39;17.70;66.30
68011;DHT22;54794;48.348;7.878;2022-08-21T03:06:10;17.70;66.30
68011;DHT22;54794;48.348;7.878;2022-08-21T03:08:39;17.70;66.40
68011;DHT22;54794;48.348;7.878;2022-08-21T03:11:06;17.60;66.30
68011;DHT22;54794;48.348;7.878;2022-08-21T03:13:36;17.60;66.30
68011;DHT22;54794;48.348;7.878;2022-08-21T03:16:03;17.60;66.40
68011;DHT22;54794;48.348;7.878;2022-08-21T03:18:35;17.60;66.40
68011;DHT22;54794;48.348;7.878;2022-08-21T03:21:03;17.60;66.40
68011;DHT22;54794;48.348;7.878;2022-08-21T03:23:31;17.60;66.50
68011;DHT22;54794;48.348;7.878;2022-08-21T03:25:59;17.60;66.50
68011;DHT22;54794;48.348;7.878;2022-08-21T03:28:27;17.60;66.50
68011;DHT22;54794;48.348;7.878;2022-08-21T03:30:54;17.60;66.40
68011;DHT22;54794;48.348;7.878;2022-08-21T03:33:22;17.60;66.40
68011;DHT22;54794;48.348;7.878;2022-08-21T03:36:07;17.50;66.50
68011;DHT22;54794;48.348;7.878;2022-08-21T03:38:35;17.60;66.70
68011;DHT22;54794;48.348;7.878;2022-08-21T03:41:04;17.50;66.10
68011;DHT22;54794;48.348;7.878;2022-08-21T03:43:33;17.50;66.50
68011;DHT22;54794;48.348;7.878;2022-08-21T03:46:01;17.40;66.50
68011;DHT22;54794;48.348;7.878;2022-08-21T03:48:31;17.50;66.80
68011;DHT22;54794;48.348;7.878;2022-08-21T03:50:59;17.40;66.20
68011;DHT22;54794;48.348;7.878;2022-08-21T03:53:26;17.40;66.50
68011;DHT22;54794;48.348;7.878;2022-08-21T03:55:53;17.40;66.60
68011;DHT22;54794;48.348;7.878;2022-08-21T03:58:24;17.40;66.70
68011;DHT22;54794;48.348;7.878;2022-08-21T04:00:55;17.40;66.90
68011;DHT22;54794;48.348;7.878;2022-08-21T04:03:25;17.40;67.00
68011;DHT22;54794;48.348;7.878;2022-08-21T04:05:53;17.30;67.00
68011;DHT22;54794;48.348;7.878;2022-08-21T04:08:20;17.30;67.10
68011;DHT22;54794;48.348;7.878;2022-08-21T04:10:50;17.30;67.10
68011;DHT22;54794;48.348;7.878;2022-08-21T04:13:19;17.30;67.20
68011;DHT22;54794;48.348;7.878;2022-08-21T04:15:47;17.30;67.00
68011;DHT22;54794;48.348;7.878;2022-08-21T04:18:15;17.30;67.10
68011;DHT22;54794;48.348;7.878;2022-08-21T04:20:45;17.30;67.30
68011;DHT22;54794;48.348;7.878;2022-08-21T04:23:17;17.30;67.30
68011;DHT22;54794;48.348;7.878;2022-08-21T04:25:51;17.30;67.20
68011;DHT22;54794;48.348;7.878;2022-08-21T04:28:20;17.30;67.30
68011;DHT22;54794;48.348;7.878;2022-08-21T04:30:55;17.30;67.30
68011;DHT22;54794;48.348;7.878;2022-08-21T04:33:23;17.20;67.20
68011;DHT22;54794;48.348;7.878;2022-08-21T04:35:51;17.20;67.80
68011;DHT22;54794;48.348;7.878;2022-08-21T04:38:18;17.20;67.20
68011;DHT22;54794;48.348;7.878;2022-08-21T04:40:46;17.30;67.10
68011;DHT22;54794;48.348;7.878;2022-08-21T04:43:15;17.20;67.00
68011;DHT22;54794;48.348;7.878;2022-08-21T04:45:45;17.20;67.00
68011;DHT22;54794;48.348;7.878;2022-08-21T04:48:16;17.20;67.10
68011;DHT22;54794;48.348;7.878;2022-08-21T04:53:33;17.20;67.30
68011;DHT22;54794;48.348;7.878;2022-08-21T04:56:33;17.20;67.40
68011;DHT22;54794;48.348;7.878;2022-08-21T04:59:16;17.20;67.20
68011;DHT22;54794;48.348;7.878;2022-08-21T05:01:53;17.20;67.40
68011;DHT22;54794;48.348;7.878;2022-08-21T05:04:27;17.10;67.20
68011;DHT22;54794;48.348;7.878;2022-08-21T05:06:59;17.10;67.40
68011;DHT22;54794;48.348;7.878;2022-08-21T05:09:29;17.10;67.40
68011;DHT22;54794;48.348;7.878;2022-08-21T05:11:57;17.10;67.60
68011;DHT22;54794;48.348;7.878;2022-08-21T05:14:24;17.00;67.50
68011;DHT22;54794;48.348;7.878;2022-08-21T05:16:53;17.10;67.60
68011;DHT22;54794;48.348;7.878;2022-08-21T05:19:20;17.00;67.30
68011;DHT22;54794;48.348;7.878;2022-08-21T05:21:47;17.00;67.50
68011;DHT22;54794;48.348;7.878;2022-08-21T05:24:15;17.00;67.60
68011;DHT22;54794;48.348;7.878;2022-08-21T05:26:42;17.00;67.80
68011;DHT22;54794;48.348;7.878;2022-08-21T05:29:13;17.10;68.00
68011;DHT22;54794;48.348;7.878;2022-08-21T05:31:43;17.00;67.70
68011;DHT22;54794;48.348;7.878;2022-08-21T05:34:11;17.00;68.10
68011;DHT22;54794;48.348;7.878;2022-08-21T05:36:42;17.00;68.20
68011;DHT22;54794;48.348;7.878;2022-08-21T05:39:10;17.10;68.30
68011;DHT22;54794;48.348;7.878;2022-08-21T05:41:37;17.10;68.30
68011;DHT22;54794;48.348;7.878;2022-08-21T05:44:04;17.10;68.40
68011;DHT22;54794;48.348;7.878;2022-08-21T05:46:36;17.10;68.00
68011;DHT22;54794;48.348;7.878;2022-08-21T05:49:03;17.20;68.20
68011;DHT22;54794;48.348;7.878;2022-08-21T05:51:30;17.20;68.20
68011;DHT22;54794;48.348;7.878;2022-08-21T05:53:57;17.20;68.30
68011;DHT22;54794;48.348;7.878;2022-08-21T05:56:24;17.20;68.30
68011;DHT22;54794;48.348;7.878;2022-08-21T05:58:51;17.30;68.50
68011;DHT22;54794;48.348;7.878;2022-08-21T06:01:18;17.40;68.70
68011;DHT22;54794;48.348;7.878;2022-08-21T06:03:45;17.40;68.70
68011;DHT22;54794;48.348;7.878;2022-08-21T06:06:12;17.40;68.80
68011;DHT22;54794;48.348;7.878;2022-08-21T06:08:39;17.50;68.80
68011;DHT22;54794;48.348;7.878;2022-08-21T06:11:09;17.50;68.70
68011;DHT22;54794;48.348;7.878;2022-08-21T06:13:37;17.60;68.80
68011;DHT22;54794;48.348;7.878;2022-08-21T06:16:07;17.60;68.80
68011;DHT22;54794;48.348;7.878;2022-08-21T06:18:37;17.70;68.90
68011;DHT22;54794;48.348;7.878;2022-08-21T06:21:05;17.70;69.00
68011;DHT22;54794;48.348;7.878;2022-08-21T06:23:33;17.80;69.00
68011;DHT22;54794;48.348;7.878;2022-08-21T06:26:02;17.80;69.00
68011;DHT22;54794;48.348;7.878;2022-08-21T06:28:32;17.90;69.00
68011;DHT22;54794;48.348;7.878;2022-08-21T06:30:59;18.00;69.10
68011;DHT22;54794;48.348;7.878;2022-08-21T06:33:26;18.00;69.10
68011;DHT22;54794;48.348;7.878;2022-08-21T06:35:58;18.10;69.10
68011;DHT22;54794;48.348;7.878;2022-08-21T06:38:26;18.20;69.30
68011;DHT22;54794;48.348;7.878;2022-08-21T06:40:54;18.30;69.10
68011;DHT22;54794;48.348;7.878;2022-08-21T06:43:23;18.30;69.10
68011;DHT22;54794;48.348;7.878;2022-08-21T06:46:06;18.40;69.00
68011;DHT22;54794;48.348;7.878;2022-08-21T06:48:34;18.50;69.20
68011;DHT22;54794;48.348;7.878;2022-08-21T06:51:01;18.60;69.30
68011;DHT22;54794;48.348;7.878;2022-08-21T06:53:28;18.70;69.30
68011;DHT22;54794;48.348;7.878;2022-08-21T06:55:55;18.80;69.40
68011;DHT22;54794;48.348;7.878;2022-08-21T06:58:22;18.90;69.20
68011;DHT22;54794;48.348;7.878;2022-08-21T07:00:49;19.00;69.30
68011;DHT22;54794;48.348;7.878;2022-08-21T07:03:29;19.20;69.30
68011;DHT22;54794;48.348;7.878;2022-08-21T07:05:58;19.30;69.00
68011;DHT22;54794;48.348;7.878;2022-08-21T07:08:26;19.40;69.20
68011;DHT22;54794;48.348;7.878;2022-08-21T07:10:57;19.50;69.20
68011;DHT22;54794;48.348;7.878;2022-08-21T07:13:27;19.60;68.90
68011;DHT22;54794;48.348;7.878;2022-08-21T07:15:54;19.70;68.80
68011;DHT22;54794;48.348;7.878;2022-08-21T07:18:27;19.80;68.50
68011;DHT22;54794;48.348;7.878;2022-08-21T07:20:54;20.00;68.40
68011;DHT22;54794;48.348;7.878;2022-08-21T07:23:26;20.10;68.30
68011;DHT22;54794;48.348;7.878;2022-08-21T07:25:56;20.20;68.30
68011;DHT22;54794;48.348;7.878;2022-08-21T07:28:23;20.30;68.50
68011;DHT22;54794;48.348;7.878;2022-08-21T07:30:52;20.40;68.50
68011;DHT22;54794;48.348;7.878;2022-08-21T07:33:21;20.60;68.40
68011;DHT22;54794;48.348;7.878;2022-08-21T07:35:48;20.70;68.40
68011;DHT22;54794;48.348;7.878;2022-08-21T07:38:16;20.80;68.10
68011;DHT22;54794;48.348;7.878;2022-08-21T07:40:43;21.00;68.00
68011;DHT22;54794;48.348;7.878;2022-08-21T07:43:10;21.10;68.00
68011;DHT22;54794;48.348;7.878;2022-08-21T07:45:38;21.30;67.90
68011;DHT22;54794;48.348;7.878;2022-08-21T07:48:05;21.40;67.40
68011;DHT22;54794;48.348;7.878;2022-08-21T07:50:32;21.50;67.30
68011;DHT22;54794;48.348;7.878;2022-08-21T07:52:59;21.70;67.60
68011;DHT22;54794;48.348;7.878;2022-08-21T07:55:26;21.70;66.80
68011;DHT22;54794;48.348;7.878;2022-08-21T07:57:53;21.90;66.60
68011;DHT22;54794;48.348;7.878;2022-08-21T08:00:22;22.00;66.30
68011;DHT22;54794;48.348;7.878;2022-08-21T08:02:51;22.20;65.90
68011;DHT22;54794;48.348;7.878;2022-08-21T08:05:23;22.20;65.80
68011;DHT22;54794;48.348;7.878;2022-08-21T08:07:53;22.40;66.10
68011;DHT22;54794;48.348;7.878;2022-08-21T08:10:21;22.50;65.70
68011;DHT22;54794;48.348;7.878;2022-08-21T08:12:52;22.70;65.20
68011;DHT22;54794;48.348;7.878;2022-08-21T08:15:23;22.80;65.00
68011;DHT22;54794;48.348;7.878;2022-08-21T08:17:52;22.90;64.60
68011;DHT22;54794;48.348;7.878;2022-08-21T08:20:22;23.00;64.50
68011;DHT22;54794;48.348;7.878;2022-08-21T08:22:50;23.10;64.20
68011;DHT22;54794;48.348;7.878;2022-08-21T08:25:18;23.20;63.90
68011;DHT22;54794;48.348;7.878;2022-08-21T08:27:47;23.30;63.90
68011;DHT22;54794;48.348;7.878;2022-08-21T08:30:16;23.40;63.90
68011;DHT22;54794;48.348;7.878;2022-08-21T08:32:45;23.60;63.60
68011;DHT22;54794;48.348;7.878;2022-08-21T08:35:13;23.60;63.40
68011;DHT22;54794;48.348;7.878;2022-08-21T08:37:42;23.80;62.80
68011;DHT22;54794;48.348;7.878;2022-08-21T08:40:31;23.90;62.60
68011;DHT22;54794;48.348;7.878;2022-08-21T08:43:08;24.00;61.70
68011;DHT22;54794;48.348;7.878;2022-08-21T08:45:43;24.20;62.20
68011;DHT22;54794;48.348;7.878;2022-08-21T08:48:36;24.30;62.20
68011;DHT22;54794;48.348;7.878;2022-08-21T08:54:36;24.60;61.10
68011;DHT22;54794;48.348;7.878;2022-08-21T08:57:20;24.80;60.60
68011;DHT22;54794;48.348;7.878;2022-08-21T09:00:10;24.90;61.70
68011;DHT22;54794;48.348;7.878;2022-08-21T09:02:44;25.00;60.30
68011;DHT22;54794;48.348;7.878;2022-08-21T09:05:40;25.20;60.00
68011;DHT22;54794;48.348;7.878;2022-08-21T09:09:16;25.30;59.10
68011;DHT22;54794;48.348;7.878;2022-08-21T09:20:27;25.70;58.20
68011;DHT22;54794;48.348;7.878;2022-08-21T09:26:21;25.90;57.20
68011;DHT22;54794;48.348;7.878;2022-08-21T09:28:57;25.90;56.80
68011;DHT22;54794;48.348;7.878;2022-08-21T09:31:34;26.00;56.10
68011;DHT22;54794;48.348;7.878;2022-08-21T09:34:08;26.10;56.60
68011;DHT22;54794;48.348;7.878;2022-08-21T09:36:47;26.20;56.30
68011;DHT22;54794;48.348;7.878;2022-08-21T09:42:08;26.40;54.00
68011;DHT22;54794;48.348;7.878;2022-08-21T09:44:39;26.40;55.70
68011;DHT22;54794;48.348;7.878;2022-08-21T09:47:11;26.50;55.40
68011;DHT22;54794;48.348;7.878;2022-08-21T09:49:43;26.60;56.00
68011;DHT22;54794;48.348;7.878;2022-08-21T09:52:21;26.70;56.00
68011;DHT22;54794;48.348;7.878;2022-08-21T09:54:54;26.80;54.80
68011;DHT22;54794;48.348;7.878;2022-08-21T09:57:26;26.90;55.80
68011;DHT22;54794;48.348;7.878;2022-08-21T10:00:29;27.10;55.40
68011;DHT22;54794;48.348;7.878;2022-08-21T10:03:19;27.20;55.00
68011;DHT22;54794;48.348;7.878;2022-08-21T10:06:04;27.40;54.00
68011;DHT22;54794;48.348;7.878;2022-08-21T10:08:37;27.50;53.60
68011;DHT22;54794;48.348;7.878;2022-08-21T10:11:13;27.60;54.20
68011;DHT22;54794;48.348;7.878;2022-08-21T10:16:12;27.80;54.30
68011;DHT22;54794;48.348;7.878;2022-08-21T10:34:19;28.40;52.00
68011;DHT22;54794;48.348;7.878;2022-08-21T10:37:01;28.50;51.30
68011;DHT22;54794;48.348;7.878;2022-08-21T10:46:00;28.80;50.50
68011;DHT22;54794;48.348;7.878;2022-08-21T10:48:50;28.90;49.20
68011;DHT22;54794;48.348;7.878;2022-08-21T10:54:59;29.00;50.30
68011;DHT22;54794;48.348;7.878;2022-08-21T11:00:09;29.20;48.50
68011;DHT22;54794;48.348;7.878;2022-08-21T11:02:47;29.40;47.10
68011;DHT22;54794;48.348;7.878;2022-08-21T11:05:38;29.40;47.50
68011;DHT22;54794;48.348;7.878;2022-08-21T11:08:33;29.50;47.00
68011;DHT22;54794;48.348;7.878;2022-08-21T11:11:31;29.60;48.00
68011;DHT22;54794;48.348;7.878;2022-08-21T11:14:20;29.60;47.60
68011;DHT22;54794;48.348;7.878;2022-08-21T11:17:05;29.80;47.40
68011;DHT22;54794;48.348;7.878;2022-08-21T11:22:46;30.00;47.00
68011;DHT22;54794;48.348;7.878;2022-08-21T11:25:36;30.10;46.50
68011;DHT22;54794;48.348;7.878;2022-08-21T11:37:04;30.50;47.00
68011;DHT22;54794;48.348;7.878;2022-08-21T11:40:03;30.60;45.30
68011;DHT22;54794;48.348;7.878;2022-08-21T11:45:33;30.90;46.30
68011;DHT22;54794;48.348;7.878;2022-08-21T11:51:21;31.00;45.20
68011;DHT22;54794;48.348;7.878;2022-08-21T11:56:37;31.30;43.80
68011;DHT22;54794;48.348;7.878;2022-08-21T11:59:20;31.40;43.40
68011;DHT22;54794;48.348;7.878;2022-08-21T12:02:15;31.40;43.40
68011;DHT22;54794;48.348;7.878;2022-08-21T12:04:58;31.40;41.30
68011;DHT22;54794;48.348;7.878;2022-08-21T12:07:38;31.50;42.60
68011;DHT22;54794;48.348;7.878;2022-08-21T12:10:11;31.40;43.40
68011;DHT22;54794;48.348;7.878;2022-08-21T12:12:42;31.40;43.60
68011;DHT22;54794;48.348;7.878;2022-08-21T12:17:57;31.60;42.60
68011;DHT22;54794;48.348;7.878;2022-08-21T12:23:33;31.80;45.30
68011;DHT22;54794;48.348;7.878;2022-08-21T12:26:20;31.90;43.30
68011;DHT22;54794;48.348;7.878;2022-08-21T12:29:02;32.00;41.30
68011;DHT22;54794;48.348;7.878;2022-08-21T12:34:38;32.20;42.70
68011;DHT22;54794;48.348;7.878;2022-08-21T12:37:41;32.30;44.70
68011;DHT22;54794;48.348;7.878;2022-08-21T12:42:55;32.40;40.20
68011;DHT22;54794;48.348;7.878;2022-08-21T12:48:16;32.50;40.20
68011;DHT22;54794;48.348;7.878;2022-08-21T12:56:30;32.70;39.80
68011;DHT22;54794;48.348;7.878;2022-08-21T12:59:05;32.80;39.60
68011;DHT22;54794;48.348;7.878;2022-08-21T13:01:37;33.00;39.00
68011;DHT22;54794;48.348;7.878;2022-08-21T13:04:13;33.00;39.50
68011;DHT22;54794;48.348;7.878;2022-08-21T13:06:46;33.10;39.40
68011;DHT22;54794;48.348;7.878;2022-08-21T13:09:19;33.10;39.00
68011;DHT22;54794;48.348;7.878;2022-08-21T13:11:50;33.20;39.20
68011;DHT22;54794;48.348;7.878;2022-08-21T13:14:33;33.20;39.00
68011;DHT22;54794;48.348;7.878;2022-08-21T13:17:11;33.30;38.50
68011;DHT22;54794;48.348;7.878;2022-08-21T13:19:54;33.40;38.40
68011;DHT22;54794;48.348;7.878;2022-08-21T13:22:23;33.50;37.80
68011;DHT22;54794;48.348;7.878;2022-08-21T13:25:00;33.50;37.70
68011;DHT22;54794;48.348;7.878;2022-08-21T13:27:33;33.50;38.10
68011;DHT22;54794;48.348;7.878;2022-08-21T13:30:19;33.50;37.90
68011;DHT22;54794;48.348;7.878;2022-08-21T13:32:54;33.60;37.50
68011;DHT22;54794;48.348;7.878;2022-08-21T13:38:12;33.80;37.70
68011;DHT22;54794;48.348;7.878;2022-08-21T13:40:50;33.80;38.10
68011;DHT22;54794;48.348;7.878;2022-08-21T13:43:27;33.90;36.70
68011;DHT22;54794;48.348;7.878;2022-08-21T13:46:00;33.90;37.10
68011;DHT22;54794;48.348;7.878;2022-08-21T13:48:32;34.00;38.90
68011;DHT22;54794;48.348;7.878;2022-08-21T13:51:01;34.00;36.80
68011;DHT22;54794;48.348;7.878;2022-08-21T13:53:32;34.00;37.00
68011;DHT22;54794;48.348;7.878;2022-08-21T13:56:03;34.10;36.60
68011;DHT22;54794;48.348;7.878;2022-08-21T13:58:44;34.10;36.50
68011;DHT22;54794;48.348;7.878;2022-08-21T14:01:20;34.20;36.30
68011;DHT22;54794;48.348;7.878;2022-08-21T14:03:57;34.30;35.30
68011;DHT22;54794;48.348;7.878;2022-08-21T14:06:34;34.40;36.50
68011;DHT22;54794;48.348;7.878;2022-08-21T14:09:13;34.40;36.10
68011;DHT22;54794;48.348;7.878;2022-08-21T14:11:47;34.50;35.20
68011;DHT22;54794;48.348;7.878;2022-08-21T14:14:28;34.50;36.70
68011;DHT22;54794;48.348;7.878;2022-08-21T14:17:01;34.50;35.90
68011;DHT22;54794;48.348;7.878;2022-08-21T14:19:54;34.60;36.40
68011;DHT22;54794;48.348;7.878;2022-08-21T14:22:37;34.60;36.10
68011;DHT22;54794;48.348;7.878;2022-08-21T14:25:26;34.70;34.80
68011;DHT22;54794;48.348;7.878;2022-08-21T14:30:45;34.70;35.10
68011;DHT22;54794;48.348;7.878;2022-08-21T14:33:28;34.80;35.20
68011;DHT22;54794;48.348;7.878;2022-08-21T14:35:57;34.80;34.40
68011;DHT22;54794;48.348;7.878;2022-08-21T14:38:27;34.80;34.60
68011;DHT22;54794;48.348;7.878;2022-08-21T14:40:57;34.80;34.00
68011;DHT22;54794;48.348;7.878;2022-08-21T14:43:30;34.80;34.00
68011;DHT22;54794;48.348;7.878;2022-08-21T14:45:58;34.90;34.70
68011;DHT22;54794;48.348;7.878;2022-08-21T14:48:26;34.90;34.20
68011;DHT22;54794;48.348;7.878;2022-08-21T14:50:53;34.90;34.20
68011;DHT22;54794;48.348;7.878;2022-08-21T14:53:26;35.00;35.40
68011;DHT22;54794;48.348;7.878;2022-08-21T14:55:53;35.00;33.60
68011;DHT22;54794;48.348;7.878;2022-08-21T14:58:42;34.90;33.20
68011;DHT22;54794;48.348;7.878;2022-08-21T15:01:13;34.90;32.60
68011;DHT22;54794;48.348;7.878;2022-08-21T15:03:41;34.90;33.10
68011;DHT22;54794;48.348;7.878;2022-08-21T15:06:09;34.90;33.10
68011;DHT22;54794;48.348;7.878;2022-08-21T15:08:37;34.80;32.90
68011;DHT22;54794;48.348;7.878;2022-08-21T15:11:05;34.80;32.70
68011;DHT22;54794;48.348;7.878;2022-08-21T15:13:39;34.80;32.80
68011;DHT22;54794;48.348;7.878;2022-08-21T15:16:08;34.80;31.90
68011;DHT22;54794;48.348;7.878;2022-08-21T15:18:37;34.80;31.70
68011;DHT22;54794;48.348;7.878;2022-08-21T15:21:05;34.80;32.40
68011;DHT22;54794;48.348;7.878;2022-08-21T15:23:32;34.80;31.80
68011;DHT22;54794;48.348;7.878;2022-08-21T15:25:59;34.80;31.70
68011;DHT22;54794;48.348;7.878;2022-08-21T15:28:28;34.80;32.50
68011;DHT22;54794;48.348;7.878;2022-08-21T15:30:59;34.70;31.70
68011;DHT22;54794;48.348;7.878;2022-08-21T15:33:27;34.70;31.40
68011;DHT22;54794;48.348;7.878;2022-08-21T15:35:55;34.70;31.70
68011;DHT22;54794;48.348;7.878;2022-08-21T15:38:22;34.60;31.00
68011;DHT22;54794;48.348;7.878;2022-08-21T15:40:50;34.60;31.40
68011;DHT22;54794;48.348;7.878;2022-08-21T15:43:28;34.50;30.90
68011;DHT22;54794;48.348;7.878;2022-08-21T15:46:14;34.50;30.00
68011;DHT22;54794;48.348;7.878;2022-08-21T15:48:43;34.40;30.50
68011;DHT22;54794;48.348;7.878;2022-08-21T15:51:14;34.40;30.70
68011;DHT22;54794;48.348;7.878;2022-08-21T15:53:42;34.30;30.30
68011;DHT22;54794;48.348;7.878;2022-08-21T15:56:22;34.30;30.60
68011;DHT22;54794;48.348;7.878;2022-08-21T15:58:53;34.20;29.70
68011;DHT22;54794;48.348;7.878;2022-08-21T16:01:26;34.10;29.90
68011;DHT22;54794;48.348;7.878;2022-08-21T16:04:02;34.10;30.80
68011;DHT22;54794;48.348;7.878;2022-08-21T16:06:30;34.00;30.30
68011;DHT22;54794;48.348;7.878;2022-08-21T16:09:04;33.90;30.30
68011;DHT22;54794;48.348;7.878;2022-08-21T16:11:30;33.90;30.20
68011;DHT22;54794;48.348;7.878;2022-08-21T16:13:58;33.90;30.00
68011;DHT22;54794;48.348;7.878;2022-08-21T16:16:35;33.80;30.20
68011;DHT22;54794;48.348;7.878;2022-08-21T16:19:03;33.80;29.70
68011;DHT22;54794;48.348;7.878;2022-08-21T16:21:33;33.80;29.90
68011;DHT22;54794;48.348;7.878;2022-08-21T16:24:01;33.80;29.40
68011;DHT22;54794;48.348;7.878;2022-08-21T16:26:27;33.70;29.40
68011;DHT22;54794;48.348;7.878;2022-08-21T16:28:56;33.70;28.90
68011;DHT22;54794;48.348;7.878;2022-08-21T16:31:26;33.70;29.10
68011;DHT22;54794;48.348;7.878;2022-08-21T16:33:54;33.60;29.50
68011;DHT22;54794;48.348;7.878;2022-08-21T16:36:24;33.50;29.40
68011;DHT22;54794;48.348;7.878;2022-08-21T16:38:53;33.40;29.00
68011;DHT22;54794;48.348;7.878;2022-08-21T16:41:23;33.40;28.80
68011;DHT22;54794;48.348;7.878;2022-08-21T16:43:54;33.20;28.70
68011;DHT22;54794;48.348;7.878;2022-08-21T16:46:22;33.20;29.00
68011;DHT22;54794;48.348;7.878;2022-08-21T16:48:50;33.00;29.20
68011;DHT22;54794;48.348;7.878;2022-08-21T16:51:17;32.90;29.00
68011;DHT22;54794;48.348;7.878;2022-08-21T16:53:44;32.80;29.20
68011;DHT22;54794;48.348;7.878;2022-08-21T16:56:12;32.70;29.40
68011;DHT22;54794;48.348;7.878;2022-08-21T16:58:46;32.50;29.40
68011;DHT22;54794;48.348;7.878;2022-08-21T17:01:17;32.40;29.50
68011;DHT22;54794;48.348;7.878;2022-08-21T17:03:48;32.20;29.60
68011;DHT22;54794;48.348;7.878;2022-08-21T17:06:17;32.10;29.30
68011;DHT22;54794;48.348;7.878;2022-08-21T17:08:46;31.90;29.40
68011;DHT22;54794;48.348;7.878;2022-08-21T17:11:37;31.80;29.80
68011;DHT22;54794;48.348;7.878;2022-08-21T17:14:11;31.60;29.40
68011;DHT22;54794;48.348;7.878;2022-08-21T17:16:46;31.50;29.80
68011;DHT22;54794;48.348;7.878;2022-08-21T17:19:17;31.40;29.50
68011;DHT22;54794;48.348;7.878;2022-08-21T17:21:45;31.20;29.60
68011;DHT22;54794;48.348;7.878;2022-08-21T17:24:12;31.00;29.70
68011;DHT22;54794;48.348;7.878;2022-08-21T17:26:42;30.80;30.00
68011;DHT22;54794;48.348;7.878;2022-08-21T17:29:11;30.60;29.90
68011;DHT22;54794;48.348;7.878;2022-08-21T17:31:42;30.50;29.90
68011;DHT22;54794;48.348;7.878;2022-08-21T17:34:10;30.40;30.00
68011;DHT22;54794;48.348;7.878;2022-08-21T17:36:38;30.20;30.20
68011;DHT22;54794;48.348;7.878;2022-08-21T17:39:05;30.10;30.20
68011;DHT22;54794;48.348;7.878;2022-08-21T17:41:32;30.00;30.30